Loenerborg — PCHH — position and weather

sailwx.info

Track history (hours):
 
Tides and Currents Weather Stations Pressure Air Temp Water Temp Dewpoint Dewpoint Depression Visibility Wind Speed Wind Dir Waves Ship Positions

Loenerborg

Last reported at 2017-Oct-17 22:47 UTC. Time now 2017-Oct-20 01:42 UTC.
Position N 49°49' W 003°26'.

Length 108 m; draft 7.1 m.

Type: Cargo ship. MMSI: 244710117.

Date/timePositionNaut miles runAvg speedWind from/ knotsBaromVisibWave heightAir tempDewpointWater temp
2017-Oct-17 22:47N 49°49' W 003°26'412.3
2017-Oct-17 22:30N 49°51' W 003°21'612.0
2017-Oct-17 22:00N 49°54' W 003°13'611.7
2017-Oct-17 21:30N 49°57' W 003°05'611.1
2017-Oct-17 21:00N 49°59' W 002°58'34 8.4
2017-Oct-17 16:57N 50°09' W 002°06'6811.4
2017-Oct-17 10:59N 50°27' W 000°24'511.2
2017-Oct-17 10:30N 50°29' W 000°16'510.6
2017-Oct-17 10:00N 50°30' W 000°08'5 9.7
2017-Oct-17 09:30N 50°32' W 000°00'5 9.1
2017-Oct-17 09:00N 50°33' E 000°07'4 8.6
2017-Oct-17 08:30N 50°34' E 000°13'4 8.0
2017-Oct-17 08:00N 50°35' E 000°19'4 7.6
2017-Oct-17 07:30N 50°36' E 000°25'4 7.4
2017-Oct-17 07:00N 50°37' E 000°30'4 7.6
2017-Oct-17 06:30N 50°39' E 000°36'4 8.3
2017-Oct-17 06:00N 50°41' E 000°41'4 8.8
2017-Oct-17 05:30N 50°44' E 000°47'5 9.5
2017-Oct-17 05:00N 50°47' E 000°53'510.1
2017-Oct-17 04:30N 50°49' E 000°60'610.7
2017-Oct-17 03:56N 50°53' E 001°07'510.7
2017-Oct-17 03:29N 50°57' E 001°13'511.1
2017-Oct-17 03:00N 51°00' E 001°19'510.6
2017-Oct-17 02:30N 51°04' E 001°25'5 9.8
2017-Oct-17 02:00N 51°07' E 001°32'4 9.0
2017-Oct-17 01:30N 51°09' E 001°37'4 8.3
2017-Oct-17 01:00N 51°12' E 001°42'4 7.9
2017-Oct-17 00:30N 51°14' E 001°48'4 7.5
2017-Oct-17 00:00N 51°17' E 001°51'4 7.4
2017-Oct-16 23:30N 51°20' E 001°54'4 7.2
2017-Oct-16 23:00N 51°23' E 001°58'4 7.1
2017-Oct-16 22:30N 51°25' E 002°03'4 8.9
2017-Oct-16 22:00N 51°23' E 002°09'4 8.7
2017-Oct-16 21:30N 51°21' E 002°16'4 7.5
2017-Oct-16 21:00N 51°21' E 002°21'4 8.5
2017-Oct-16 20:30N 51°23' E 002°28'5 9.2
2017-Oct-16 20:00N 51°23' E 002°36'6 9.8
2017-Oct-16 19:26N 51°22' E 002°44'4 8.7
2017-Oct-16 19:00N 51°22' E 002°50'510.9
2017-Oct-16 18:30N 51°24' E 002°59'510.9
2017-Oct-16 18:00N 51°24' E 003°08'611.3
2017-Oct-16 17:30N 51°25' E 003°17'611.5
2017-Oct-16 17:00N 51°25' E 003°26'611.8
2017-Oct-16 16:30N 51°26' E 003°35'5 9.8
2017-Oct-16 16:00N 51°25' E 003°43'611.5
2017-Oct-16 15:30N 51°20' E 003°49'1 1.4
2017-Oct-16 15:00N 51°20' E 003°49'2 2.4
2017-Oct-16 14:01N 51°17' E 003°50'3 6.2
2017-Oct-16 13:30N 51°14' E 003°49'3 6.8
2017-Oct-16 13:01N 51°11' E 003°48'0 0.8
2017-Oct-16 12:29N 51°11' E 003°48'0 0.0
2017-Oct-16 11:56N 51°11' E 003°48'0 0.0
2017-Oct-16 11:29N 51°11' E 003°48'0 0.0
2017-Oct-16 10:59N 51°11' E 003°48'0 0.0
2017-Oct-16 10:29N 51°11' E 003°48'0 0.0
2017-Oct-16 09:59N 51°11' E 003°48'0 0.0
2017-Oct-16 09:29N 51°11' E 003°48'0 0.0
2017-Oct-16 08:59N 51°11' E 003°48'0 0.0
2017-Oct-16 08:29N 51°11' E 003°48'0 0.0
2017-Oct-16 07:59N 51°11' E 003°48'0 0.0
2017-Oct-16 07:29N 51°11' E 003°48'0 0.0
2017-Oct-16 06:59N 51°11' E 003°48'0 0.0
2017-Oct-16 06:29N 51°11' E 003°48'0 0.0
2017-Oct-16 05:59N 51°11' E 003°48'0 0.0
2017-Oct-16 05:29N 51°11' E 003°48'0 0.0
2017-Oct-16 04:59N 51°11' E 003°48'0 0.0
2017-Oct-16 04:29N 51°11' E 003°48'0 0.0
2017-Oct-16 03:59N 51°11' E 003°48'0 0.0
2017-Oct-16 03:29N 51°11' E 003°48'0 0.0
2017-Oct-16 02:59N 51°11' E 003°48'0 0.0
2017-Oct-16 02:26N 51°11' E 003°48'0 0.0
2017-Oct-16 01:59N 51°11' E 003°48'0 0.0
2017-Oct-16 01:29N 51°11' E 003°48'0 0.0
2017-Oct-16 00:59N 51°11' E 003°48'0 0.0
2017-Oct-16 00:29N 51°11' E 003°48'0 0.0
2017-Oct-15 23:59N 51°11' E 003°48'0 0.0
2017-Oct-15 23:29N 51°11' E 003°48'0 0.0
2017-Oct-15 22:59N 51°11' E 003°48'0 0.0
2017-Oct-15 22:26N 51°11' E 003°48'0 0.0
2017-Oct-15 21:59N 51°11' E 003°48'0 0.0
2017-Oct-15 21:29N 51°11' E 003°48'0 0.0
2017-Oct-15 20:59N 51°11' E 003°48'0 0.0
2017-Oct-15 20:29N 51°11' E 003°48'0 0.0
2017-Oct-15 19:59N 51°11' E 003°48'0 0.0
2017-Oct-15 19:29N 51°11' E 003°48'0 0.0
2017-Oct-15 18:59N 51°11' E 003°48'0 0.0
2017-Oct-15 18:29N 51°11' E 003°48'0 0.0
2017-Oct-15 17:59N 51°11' E 003°48'0 0.0
2017-Oct-15 17:26N 51°11' E 003°48'0 0.0
2017-Oct-15 16:59N 51°11' E 003°48'0 0.0
2017-Oct-15 16:29N 51°11' E 003°48'0 0.0
2017-Oct-15 15:59N 51°11' E 003°48'0 0.0
2017-Oct-15 15:29N 51°11' E 003°48'0 0.0
2017-Oct-15 14:59N 51°11' E 003°48'0 0.0
2017-Oct-15 13:59N 51°11' E 003°48'0 0.0
2017-Oct-15 13:29N 51°11' E 003°48'0 0.0
2017-Oct-15 12:59N 51°11' E 003°48'0 0.0
2017-Oct-15 12:29N 51°11' E 003°48'0 0.0
2017-Oct-15 11:59N 51°11' E 003°48'0 0.0
2017-Oct-15 11:29N 51°11' E 003°48'0 0.0
2017-Oct-15 10:59N 51°11' E 003°48'0 0.0
2017-Oct-15 10:29N 51°11' E 003°48'0 0.0
2017-Oct-15 09:59N 51°11' E 003°48'0 0.0
2017-Oct-15 09:29N 51°11' E 003°48'0 0.0
2017-Oct-15 08:59N 51°11' E 003°48'0 0.0
2017-Oct-15 08:29N 51°11' E 003°48'0 0.0
2017-Oct-15 07:59N 51°11' E 003°48'0 0.1
2017-Oct-15 07:31N 51°11' E 003°48'1 2.5
2017-Oct-15 07:00N 51°09' E 003°47'0 0.0
2017-Oct-15 06:31N 51°09' E 003°47'0 0.0
2017-Oct-15 05:59N 51°09' E 003°47'0 0.0
2017-Oct-15 05:29N 51°09' E 003°47'0 0.0
2017-Oct-15 04:59N 51°09' E 003°47'0 0.0
2017-Oct-15 04:29N 51°09' E 003°47'0 0.0
2017-Oct-15 03:59N 51°09' E 003°47'0 0.0
2017-Oct-15 03:29N 51°09' E 003°47'0 0.0
2017-Oct-15 02:59N 51°09' E 003°47'0 0.0
2017-Oct-15 02:29N 51°09' E 003°47'0 0.0
2017-Oct-15 01:59N 51°09' E 003°47'0 0.0
2017-Oct-15 01:29N 51°09' E 003°47'0 0.0
2017-Oct-15 00:59N 51°09' E 003°47'0 0.0
2017-Oct-15 00:29N 51°09' E 003°47'0 0.0
2017-Oct-14 23:59N 51°09' E 003°47'0 0.0
2017-Oct-14 23:29N 51°09' E 003°47'0 0.0
2017-Oct-14 22:59N 51°09' E 003°47'0 0.0
2017-Oct-14 22:29N 51°09' E 003°47'0 0.0
2017-Oct-14 21:59N 51°09' E 003°47'0 0.0
2017-Oct-14 21:29N 51°09' E 003°47'0 0.0
2017-Oct-14 20:59N 51°09' E 003°47'0 0.0
2017-Oct-14 20:29N 51°09' E 003°47'0 0.0
2017-Oct-14 19:59N 51°09' E 003°47'0 0.0
2017-Oct-14 19:29N 51°09' E 003°47'0 0.0
2017-Oct-14 18:59N 51°09' E 003°47'0 0.0
2017-Oct-14 18:29N 51°09' E 003°47'0 0.0
2017-Oct-14 17:59N 51°09' E 003°47'0 0.0
2017-Oct-14 17:29N 51°09' E 003°47'0 0.0
2017-Oct-14 16:59N 51°09' E 003°47'0 0.0
2017-Oct-14 16:29N 51°09' E 003°47'0 0.0
2017-Oct-14 15:59N 51°09' E 003°47'0 0.0
2017-Oct-14 15:29N 51°09' E 003°47'0 0.0
2017-Oct-14 14:59N 51°09' E 003°47'0 0.0
2017-Oct-14 14:29N 51°09' E 003°47'0 0.0
2017-Oct-14 13:59N 51°09' E 003°47'0 0.0
2017-Oct-14 13:29N 51°09' E 003°47'0 0.0
2017-Oct-14 12:59N 51°09' E 003°47'0 0.0
2017-Oct-14 12:29N 51°09' E 003°47'0 0.0
2017-Oct-14 11:59N 51°09' E 003°47'0 0.0
2017-Oct-14 11:29N 51°09' E 003°47'0 0.0
2017-Oct-14 10:59N 51°09' E 003°47'0 0.0
2017-Oct-14 10:29N 51°09' E 003°47'0 0.0
2017-Oct-14 09:59N 51°09' E 003°47'0 0.0
2017-Oct-14 09:29N 51°09' E 003°47'0 0.0
2017-Oct-14 08:59N 51°09' E 003°47'0 0.0
2017-Oct-14 08:29N 51°09' E 003°47'0 0.0
2017-Oct-14 07:59N 51°09' E 003°47'0 0.0
2017-Oct-14 07:29N 51°09' E 003°47'0 0.0
2017-Oct-14 06:59N 51°09' E 003°47'0 0.0
2017-Oct-14 06:29N 51°09' E 003°47'0 0.0
2017-Oct-14 05:59N 51°09' E 003°47'0 0.0
2017-Oct-14 05:29N 51°09' E 003°47'0 0.0
2017-Oct-14 04:59N 51°09' E 003°47'0 0.0
2017-Oct-14 04:29N 51°09' E 003°47'0 0.0
2017-Oct-14 03:59N 51°09' E 003°47'0 0.0
2017-Oct-14 03:29N 51°09' E 003°47'0 0.0
2017-Oct-14 02:59N 51°09' E 003°47'0 0.0
2017-Oct-14 02:29N 51°09' E 003°47'0 0.0
2017-Oct-14 01:59N 51°09' E 003°47'0 0.0
2017-Oct-14 01:29N 51°09' E 003°47'0 0.0
2017-Oct-14 00:59N 51°09' E 003°47'0 0.0
2017-Oct-14 00:29N 51°09' E 003°47'0 0.0
2017-Oct-13 23:59N 51°09' E 003°47'0 0.0
2017-Oct-13 23:29N 51°09' E 003°47'0 0.0
2017-Oct-13 22:59N 51°09' E 003°47'0 0.0
2017-Oct-13 22:29N 51°09' E 003°47'0 0.0
2017-Oct-13 21:59N 51°09' E 003°47'0 0.0
2017-Oct-13 21:29N 51°09' E 003°47'0 0.0
2017-Oct-13 20:59N 51°09' E 003°47'0 0.0
2017-Oct-13 20:29N 51°09' E 003°47'0 0.0
2017-Oct-13 19:59N 51°09' E 003°47'0 0.0
2017-Oct-13 19:29N 51°09' E 003°47'0 0.0
2017-Oct-13 18:59N 51°09' E 003°47'0 0.0
2017-Oct-13 18:29N 51°09' E 003°47'0 0.0
2017-Oct-13 17:59N 51°09' E 003°47'0 0.0
2017-Oct-13 17:29N 51°09' E 003°47'0 0.0
2017-Oct-13 16:59N 51°09' E 003°47'0 0.0
2017-Oct-13 16:29N 51°09' E 003°47'0 0.0
2017-Oct-13 15:59N 51°09' E 003°47'0 0.0
2017-Oct-13 15:29N 51°09' E 003°47'0 0.1
2017-Oct-13 15:01N 51°09' E 003°47'3 6.2
2017-Oct-13 14:31N 51°13' E 003°48'4 8.8
2017-Oct-13 14:00N 51°17' E 003°50'3 6.0
2017-Oct-13 13:30N 51°20' E 003°49'0 0.1
2017-Oct-13 13:01N 51°20' E 003°49'0 0.0
2017-Oct-13 12:31N 51°20' E 003°49'1 1.4
2017-Oct-13 12:01N 51°20' E 003°49'3 6.0
2017-Oct-13 11:30N 51°22' E 003°45'5 9.4
2017-Oct-13 11:01N 51°25' E 003°39'4 7.9
2017-Oct-13 10:30N 51°25' E 003°33'4 7.9
2017-Oct-13 10:01N 51°25' E 003°26'4 8.8
2017-Oct-13 09:31N 51°24' E 003°19'4 9.0
2017-Oct-13 09:01N 51°24' E 003°12'511.0
2017-Oct-13 08:31N 51°24' E 003°03'612.6
2017-Oct-13 08:00N 51°22' E 002°54'711.9
2017-Oct-13 07:23N 51°22' E 002°42'410.1
2017-Oct-13 07:00N 51°22' E 002°36'0 0.4
2017-Oct-13 06:29N 51°22' E 002°36'2 3.7
2017-Oct-13 05:59N 51°22' E 002°39'2 3.2
2017-Oct-13 05:25N 51°22' E 002°36'2 3.9
2017-Oct-13 04:55N 51°22' E 002°33'2 4.2
2017-Oct-13 04:29N 51°22' E 002°30'2 4.6
2017-Oct-13 03:59N 51°21' E 002°27'2 5.2
2017-Oct-13 03:30N 51°20' E 002°23'4 8.4
2017-Oct-13 02:59N 51°17' E 002°18'510.4
2017-Oct-13 02:30N 51°15' E 002°11'610.8
2017-Oct-13 01:59N 51°11' E 002°03'610.5
2017-Oct-13 01:25N 51°09' E 001°55'410.0
2017-Oct-13 01:01N 51°07' E 001°49'4 8.0
2017-Oct-13 00:30N 51°03' E 001°47'611.7
2017-Oct-13 00:01N 51°02' E 001°56'713.7
2017-Oct-12 23:30N 51°03' E 002°07'713.4
2017-Oct-12 22:59N 51°04' E 002°18'1 3.1
2017-Oct-12 22:31N 51°03' E 002°20'0 1.0
2017-Oct-12 22:01N 51°03' E 002°20'2 4.6
2017-Oct-12 21:29N 51°02' E 002°16'0 0.0
2017-Oct-12 20:53N 51°02' E 002°16'0 0.0
2017-Oct-12 20:23N 51°02' E 002°16'0 0.0
2017-Oct-12 19:53N 51°02' E 002°16'0 0.0
2017-Oct-12 19:05N 51°02' E 002°16'0 0.0
2017-Oct-12 18:59N 51°02' E 002°16'0 0.0
2017-Oct-12 17:32N 51°02' E 002°16'0 0.0
2017-Oct-12 17:29N 51°02' E 002°16'0 0.0
2017-Oct-12 16:59N 51°02' E 002°16'0 0.0
2017-Oct-12 15:41N 51°02' E 002°16'0 0.0
2017-Oct-12 15:26N 51°02' E 002°16'0 0.0
2017-Oct-12 14:59N 51°02' E 002°16'0 0.0
2017-Oct-12 14:14N 51°02' E 002°16'0 0.0
2017-Oct-12 13:59N 51°02' E 002°16'0 0.0
2017-Oct-12 12:23N 51°02' E 002°16'0 0.0
2017-Oct-12 10:29N 51°02' E 002°16'0 0.0
2017-Oct-12 09:59N 51°02' E 002°16'0 0.0
2017-Oct-12 09:29N 51°02' E 002°16'0 0.0
2017-Oct-12 08:53N 51°02' E 002°16'0 0.0
2017-Oct-12 08:29N 51°02' E 002°16'0 0.0
2017-Oct-12 07:44N 51°02' E 002°16'0 0.0
2017-Oct-12 07:23N 51°02' E 002°16'0 0.0
2017-Oct-12 06:59N 51°02' E 002°16'0 0.0
2017-Oct-12 06:26N 51°02' E 002°16'0 0.0
2017-Oct-12 05:59N 51°02' E 002°16'0 0.0
2017-Oct-12 05:29N 51°02' E 002°16'0 0.0
2017-Oct-12 04:56N 51°02' E 002°16'0 0.0
2017-Oct-12 04:23N 51°02' E 002°16'0 0.0
2017-Oct-12 03:59N 51°02' E 002°16'0 0.0
2017-Oct-12 03:29N 51°02' E 002°16'0 0.0
2017-Oct-12 02:59N 51°02' E 002°16'0 0.0
2017-Oct-12 02:23N 51°02' E 002°16'0 0.0
2017-Oct-12 01:59N 51°02' E 002°16'0 0.0
2017-Oct-12 00:59N 51°02' E 002°16'0 0.0
2017-Oct-12 00:29N 51°02' E 002°16'0 0.0
2017-Oct-11 23:35N 51°02' E 002°16'0 0.0
2017-Oct-11 23:29N 51°02' E 002°16'0 0.0
2017-Oct-11 22:59N 51°02' E 002°16'0 0.0
2017-Oct-11 22:30N 51°02' E 002°16'2 4.4
2017-Oct-11 22:00N 51°03' E 002°19'1 1.4
2017-Oct-11 21:25N 51°03' E 002°21'2 3.7
2017-Oct-11 21:00N 51°04' E 002°18'611.2
2017-Oct-11 20:29N 51°03' E 002°09'612.0
2017-Oct-11 19:57N 51°02' E 001°59'611.9
2017-Oct-11 19:25N 51°01' E 001°49'2 5.8
2017-Oct-11 19:00N 51°02' E 001°45'3 5.2
2017-Oct-11 18:31N 51°04' E 001°45'4 8.9
2017-Oct-11 18:00N 51°07' E 001°40'3 6.4
2017-Oct-11 17:31N 51°10' E 001°42'3 6.3
2017-Oct-11 17:01N 51°13' E 001°45'152 8.1
2017-Oct-10 22:21N 53°33' E 000°08'413.3
2017-Oct-10 22:01N 53°35' E 000°01'612.8
2017-Oct-10 21:30N 53°38' W 000°08'611.1
2017-Oct-10 21:00N 53°42' W 000°14'3 5.1
2017-Oct-10 20:30N 53°44' W 000°16'0 0.0
2017-Oct-10 20:00N 53°45' W 000°16'0 0.6
2017-Oct-10 19:30N 53°44' W 000°16'0 0.1
2017-Oct-10 19:01N 53°44' W 000°16'0 0.0
2017-Oct-10 18:28N 53°44' W 000°16'0 0.0
2017-Oct-10 17:58N 53°44' W 000°16'0 0.0
2017-Oct-10 17:28N 53°44' W 000°16'0 0.0
2017-Oct-10 16:58N 53°44' W 000°16'0 0.0
2017-Oct-10 16:28N 53°44' W 000°16'0 0.0
2017-Oct-10 15:58N 53°44' W 000°16'0 0.0
2017-Oct-10 15:28N 53°44' W 000°16'0 0.0
2017-Oct-10 14:58N 53°44' W 000°16'0 0.0
2017-Oct-10 13:58N 53°44' W 000°16'0 0.0
2017-Oct-10 13:28N 53°44' W 000°16'0 0.0
2017-Oct-10 12:58N 53°44' W 000°16'0 0.0
2017-Oct-10 12:28N 53°44' W 000°16'0 0.0
2017-Oct-10 11:58N 53°44' W 000°16'0 0.0
2017-Oct-10 11:28N 53°44' W 000°16'0 0.0
2017-Oct-10 10:58N 53°44' W 000°16'0 0.0
2017-Oct-10 10:28N 53°44' W 000°16'0 0.0
2017-Oct-10 09:58N 53°44' W 000°16'0 0.0
2017-Oct-10 09:28N 53°44' W 000°16'0 0.0
2017-Oct-10 08:58N 53°44' W 000°16'0 0.0
2017-Oct-10 08:28N 53°44' W 000°16'0 0.0
2017-Oct-10 07:58N 53°44' W 000°16'0 0.0
2017-Oct-10 07:28N 53°44' W 000°16'0 0.0
2017-Oct-10 06:58N 53°44' W 000°16'0 0.0
2017-Oct-10 06:28N 53°44' W 000°16'0 0.0
2017-Oct-10 05:58N 53°44' W 000°16'0 0.0
2017-Oct-10 05:28N 53°44' W 000°16'0 0.0
2017-Oct-10 04:58N 53°44' W 000°16'0 0.0
2017-Oct-10 04:28N 53°44' W 000°16'0 0.0
2017-Oct-10 03:58N 53°44' W 000°16'0 0.0
2017-Oct-10 03:28N 53°44' W 000°16'0 0.0
2017-Oct-10 02:58N 53°44' W 000°16'0 0.0
2017-Oct-10 02:28N 53°44' W 000°16'0 0.0
2017-Oct-10 01:58N 53°44' W 000°16'0 0.0
2017-Oct-10 01:28N 53°44' W 000°16'0 0.0
2017-Oct-10 00:58N 53°44' W 000°16'0 0.0
2017-Oct-10 00:28N 53°44' W 000°16'0 0.0
2017-Oct-09 23:58N 53°44' W 000°16'0 0.0
2017-Oct-09 23:28N 53°44' W 000°16'0 0.0
2017-Oct-09 22:58N 53°44' W 000°16'0 0.0
2017-Oct-09 22:25N 53°44' W 000°16'0 0.0
2017-Oct-09 21:58N 53°44' W 000°16'0 0.0
2017-Oct-09 21:28N 53°44' W 000°16'0 0.0
2017-Oct-09 20:58N 53°44' W 000°16'0 0.0
2017-Oct-09 20:28N 53°44' W 000°16'0 0.0
2017-Oct-09 19:58N 53°44' W 000°16'0 0.0
2017-Oct-09 19:25N 53°44' W 000°16'0 0.0
2017-Oct-09 18:58N 53°44' W 000°16'0 0.0
2017-Oct-09 18:28N 53°44' W 000°16'0 0.0
2017-Oct-09 17:58N 53°44' W 000°16'0 0.0
2017-Oct-09 17:28N 53°44' W 000°16'0 0.0
2017-Oct-09 16:58N 53°44' W 000°16'0 0.0
2017-Oct-09 16:25N 53°44' W 000°16'0 0.0
2017-Oct-09 15:58N 53°44' W 000°16'0 0.0
2017-Oct-09 15:28N 53°44' W 000°16'0 0.0
2017-Oct-09 14:58N 53°44' W 000°16'0 0.0
2017-Oct-09 14:28N 53°44' W 000°16'0 0.0
2017-Oct-09 13:58N 53°44' W 000°16'0 0.0
2017-Oct-09 13:28N 53°44' W 000°16'0 0.0
2017-Oct-09 12:58N 53°44' W 000°16'0 0.0
2017-Oct-09 12:28N 53°44' W 000°16'0 0.0
2017-Oct-09 11:58N 53°44' W 000°16'0 0.0
2017-Oct-09 11:28N 53°44' W 000°16'0 0.0
2017-Oct-09 10:58N 53°44' W 000°16'0 0.0
2017-Oct-09 10:28N 53°44' W 000°16'0 0.0
2017-Oct-09 09:58N 53°44' W 000°16'0 0.0
2017-Oct-09 09:25N 53°44' W 000°16'0 0.0
2017-Oct-09 08:58N 53°44' W 000°16'0 0.0
2017-Oct-09 08:30N 53°44' W 000°16'0 0.8
2017-Oct-09 08:00N 53°44' W 000°16'0 0.7
2017-Oct-09 07:30N 53°44' W 000°17'3 5.9
2017-Oct-09 07:01N 53°42' W 000°14'5 9.4
2017-Oct-09 06:30N 53°38' W 000°09'48 9.6
2017-Oct-09 01:29N 53°18' E 001°04'1110.1
2017-Oct-09 00:24N 53°11' E 001°18'10 9.4
2017-Oct-08 23:18N 53°10' E 001°35'60 7.8
2017-Oct-08 15:41N 52°11' E 001°57'213.2
2017-Oct-08 15:31N 52°09' E 001°56'713.3
2017-Oct-08 15:01N 52°03' E 001°52'713.1
2017-Oct-08 14:31N 51°57' E 001°49'611.8
2017-Oct-08 14:01N 51°51' E 001°49'611.3
2017-Oct-08 13:31N 51°45' E 001°49'510.8
2017-Oct-08 13:01N 51°40' E 001°49'510.4
2017-Oct-08 12:31N 51°35' E 001°51'510.4
2017-Oct-08 12:01N 51°30' E 001°56'5 9.9
2017-Oct-08 11:31N 51°26' E 001°59'5 9.8
2017-Oct-08 10:59N 51°22' E 002°05'4 8.9
2017-Oct-08 10:31N 51°18' E 002°06'4 7.9
2017-Oct-08 09:59N 51°14' E 002°03'4 7.8
2017-Oct-08 09:30N 51°12' E 001°58'4 7.5
2017-Oct-08 09:00N 51°10' E 001°53'4 7.5
2017-Oct-08 08:30N 51°08' E 001°49'4 7.4
2017-Oct-08 08:01N 51°05' E 001°44'4 7.4
2017-Oct-08 07:30N 51°02' E 001°40'  
Track history (hours):
 
Tides and Currents Weather Stations Pressure Air Temp Water Temp Dewpoint Dewpoint Depression Visibility Wind Speed Wind Dir Waves Ship Positions

Loenerborg

Last reported at 2017-Oct-17 22:47 UTC. Time now 2017-Oct-20 01:42 UTC.
Position N 49°49' W 003°26'.

Length 108 m; draft 7.1 m.

Type: Cargo ship. MMSI: 244710117.

Date/timePositionNaut miles runAvg speedWind from/ knotsBaromVisibWave heightAir tempDewpointWater temp
2017-Oct-17 22:47N 49°49' W 003°26'412.3
2017-Oct-17 22:30N 49°51' W 003°21'612.0
2017-Oct-17 22:00N 49°54' W 003°13'611.7
2017-Oct-17 21:30N 49°57' W 003°05'611.1
2017-Oct-17 21:00N 49°59' W 002°58'34 8.4
2017-Oct-17 16:57N 50°09' W 002°06'6811.4
2017-Oct-17 10:59N 50°27' W 000°24'511.2
2017-Oct-17 10:30N 50°29' W 000°16'510.6
2017-Oct-17 10:00N 50°30' W 000°08'5 9.7
2017-Oct-17 09:30N 50°32' W 000°00'5 9.1
2017-Oct-17 09:00N 50°33' E 000°07'4 8.6
2017-Oct-17 08:30N 50°34' E 000°13'4 8.0
2017-Oct-17 08:00N 50°35' E 000°19'4 7.6
2017-Oct-17 07:30N 50°36' E 000°25'4 7.4
2017-Oct-17 07:00N 50°37' E 000°30'4 7.6
2017-Oct-17 06:30N 50°39' E 000°36'4 8.3
2017-Oct-17 06:00N 50°41' E 000°41'4 8.8
2017-Oct-17 05:30N 50°44' E 000°47'5 9.5
2017-Oct-17 05:00N 50°47' E 000°53'510.1
2017-Oct-17 04:30N 50°49' E 000°60'610.7
2017-Oct-17 03:56N 50°53' E 001°07'510.7
2017-Oct-17 03:29N 50°57' E 001°13'511.1
2017-Oct-17 03:00N 51°00' E 001°19'510.6
2017-Oct-17 02:30N 51°04' E 001°25'5 9.8
2017-Oct-17 02:00N 51°07' E 001°32'4 9.0
2017-Oct-17 01:30N 51°09' E 001°37'4 8.3
2017-Oct-17 01:00N 51°12' E 001°42'4 7.9
2017-Oct-17 00:30N 51°14' E 001°48'4 7.5
2017-Oct-17 00:00N 51°17' E 001°51'4 7.4
2017-Oct-16 23:30N 51°20' E 001°54'4 7.2
2017-Oct-16 23:00N 51°23' E 001°58'4 7.1
2017-Oct-16 22:30N 51°25' E 002°03'4 8.9
2017-Oct-16 22:00N 51°23' E 002°09'4 8.7
2017-Oct-16 21:30N 51°21' E 002°16'4 7.5
2017-Oct-16 21:00N 51°21' E 002°21'4 8.5
2017-Oct-16 20:30N 51°23' E 002°28'5 9.2
2017-Oct-16 20:00N 51°23' E 002°36'6 9.8
2017-Oct-16 19:26N 51°22' E 002°44'4 8.7
2017-Oct-16 19:00N 51°22' E 002°50'510.9
2017-Oct-16 18:30N 51°24' E 002°59'510.9
2017-Oct-16 18:00N 51°24' E 003°08'611.3
2017-Oct-16 17:30N 51°25' E 003°17'611.5
2017-Oct-16 17:00N 51°25' E 003°26'611.8
2017-Oct-16 16:30N 51°26' E 003°35'5 9.8
2017-Oct-16 16:00N 51°25' E 003°43'611.5
2017-Oct-16 15:30N 51°20' E 003°49'1 1.4
2017-Oct-16 15:00N 51°20' E 003°49'2 2.4
2017-Oct-16 14:01N 51°17' E 003°50'3 6.2
2017-Oct-16 13:30N 51°14' E 003°49'3 6.8
2017-Oct-16 13:01N 51°11' E 003°48'0 0.8
2017-Oct-16 12:29N 51°11' E 003°48'0 0.0
2017-Oct-16 11:56N 51°11' E 003°48'0 0.0
2017-Oct-16 11:29N 51°11' E 003°48'0 0.0
2017-Oct-16 10:59N 51°11' E 003°48'0 0.0
2017-Oct-16 10:29N 51°11' E 003°48'0 0.0
2017-Oct-16 09:59N 51°11' E 003°48'0 0.0
2017-Oct-16 09:29N 51°11' E 003°48'0 0.0
2017-Oct-16 08:59N 51°11' E 003°48'0 0.0
2017-Oct-16 08:29N 51°11' E 003°48'0 0.0
2017-Oct-16 07:59N 51°11' E 003°48'0 0.0
2017-Oct-16 07:29N 51°11' E 003°48'0 0.0
2017-Oct-16 06:59N 51°11' E 003°48'0 0.0
2017-Oct-16 06:29N 51°11' E 003°48'0 0.0
2017-Oct-16 05:59N 51°11' E 003°48'0 0.0
2017-Oct-16 05:29N 51°11' E 003°48'0 0.0
2017-Oct-16 04:59N 51°11' E 003°48'0 0.0
2017-Oct-16 04:29N 51°11' E 003°48'0 0.0
2017-Oct-16 03:59N 51°11' E 003°48'0 0.0
2017-Oct-16 03:29N 51°11' E 003°48'0 0.0
2017-Oct-16 02:59N 51°11' E 003°48'0 0.0
2017-Oct-16 02:26N 51°11' E 003°48'0 0.0
2017-Oct-16 01:59N 51°11' E 003°48'0 0.0
2017-Oct-16 01:29N 51°11' E 003°48'0 0.0
2017-Oct-16 00:59N 51°11' E 003°48'0 0.0
2017-Oct-16 00:29N 51°11' E 003°48'0 0.0
2017-Oct-15 23:59N 51°11' E 003°48'0 0.0
2017-Oct-15 23:29N 51°11' E 003°48'0 0.0
2017-Oct-15 22:59N 51°11' E 003°48'0 0.0
2017-Oct-15 22:26N 51°11' E 003°48'0 0.0
2017-Oct-15 21:59N 51°11' E 003°48'0 0.0
2017-Oct-15 21:29N 51°11' E 003°48'0 0.0
2017-Oct-15 20:59N 51°11' E 003°48'0 0.0
2017-Oct-15 20:29N 51°11' E 003°48'0 0.0
2017-Oct-15 19:59N 51°11' E 003°48'0 0.0
2017-Oct-15 19:29N 51°11' E 003°48'0 0.0
2017-Oct-15 18:59N 51°11' E 003°48'0 0.0
2017-Oct-15 18:29N 51°11' E 003°48'0 0.0
2017-Oct-15 17:59N 51°11' E 003°48'0 0.0
2017-Oct-15 17:26N 51°11' E 003°48'0 0.0
2017-Oct-15 16:59N 51°11' E 003°48'0 0.0
2017-Oct-15 16:29N 51°11' E 003°48'0 0.0
2017-Oct-15 15:59N 51°11' E 003°48'0 0.0
2017-Oct-15 15:29N 51°11' E 003°48'0 0.0
2017-Oct-15 14:59N 51°11' E 003°48'0 0.0
2017-Oct-15 13:59N 51°11' E 003°48'0 0.0
2017-Oct-15 13:29N 51°11' E 003°48'0 0.0
2017-Oct-15 12:59N 51°11' E 003°48'0 0.0
2017-Oct-15 12:29N 51°11' E 003°48'0 0.0
2017-Oct-15 11:59N 51°11' E 003°48'0 0.0
2017-Oct-15 11:29N 51°11' E 003°48'0 0.0
2017-Oct-15 10:59N 51°11' E 003°48'0 0.0
2017-Oct-15 10:29N 51°11' E 003°48'0 0.0
2017-Oct-15 09:59N 51°11' E 003°48'0 0.0
2017-Oct-15 09:29N 51°11' E 003°48'0 0.0
2017-Oct-15 08:59N 51°11' E 003°48'0 0.0
2017-Oct-15 08:29N 51°11' E 003°48'0 0.0
2017-Oct-15 07:59N 51°11' E 003°48'0 0.1
2017-Oct-15 07:31N 51°11' E 003°48'1 2.5
2017-Oct-15 07:00N 51°09' E 003°47'0 0.0
2017-Oct-15 06:31N 51°09' E 003°47'0 0.0
2017-Oct-15 05:59N 51°09' E 003°47'0 0.0
2017-Oct-15 05:29N 51°09' E 003°47'0 0.0
2017-Oct-15 04:59N 51°09' E 003°47'0 0.0
2017-Oct-15 04:29N 51°09' E 003°47'0 0.0
2017-Oct-15 03:59N 51°09' E 003°47'0 0.0
2017-Oct-15 03:29N 51°09' E 003°47'0 0.0
2017-Oct-15 02:59N 51°09' E 003°47'0 0.0
2017-Oct-15 02:29N 51°09' E 003°47'0 0.0
2017-Oct-15 01:59N 51°09' E 003°47'0 0.0
2017-Oct-15 01:29N 51°09' E 003°47'0 0.0
2017-Oct-15 00:59N 51°09' E 003°47'0 0.0
2017-Oct-15 00:29N 51°09' E 003°47'0 0.0
2017-Oct-14 23:59N 51°09' E 003°47'0 0.0
2017-Oct-14 23:29N 51°09' E 003°47'0 0.0
2017-Oct-14 22:59N 51°09' E 003°47'0 0.0
2017-Oct-14 22:29N 51°09' E 003°47'0 0.0
2017-Oct-14 21:59N 51°09' E 003°47'0 0.0
2017-Oct-14 21:29N 51°09' E 003°47'0 0.0
2017-Oct-14 20:59N 51°09' E 003°47'0 0.0
2017-Oct-14 20:29N 51°09' E 003°47'0 0.0
2017-Oct-14 19:59N 51°09' E 003°47'0 0.0
2017-Oct-14 19:29N 51°09' E 003°47'0 0.0
2017-Oct-14 18:59N 51°09' E 003°47'0 0.0
2017-Oct-14 18:29N 51°09' E 003°47'0 0.0
2017-Oct-14 17:59N 51°09' E 003°47'0 0.0
2017-Oct-14 17:29N 51°09' E 003°47'0 0.0
2017-Oct-14 16:59N 51°09' E 003°47'0 0.0
2017-Oct-14 16:29N 51°09' E 003°47'0 0.0
2017-Oct-14 15:59N 51°09' E 003°47'0 0.0
2017-Oct-14 15:29N 51°09' E 003°47'0 0.0
2017-Oct-14 14:59N 51°09' E 003°47'0 0.0
2017-Oct-14 14:29N 51°09' E 003°47'0 0.0
2017-Oct-14 13:59N 51°09' E 003°47'0 0.0
2017-Oct-14 13:29N 51°09' E 003°47'0 0.0
2017-Oct-14 12:59N 51°09' E 003°47'0 0.0
2017-Oct-14 12:29N 51°09' E 003°47'0 0.0
2017-Oct-14 11:59N 51°09' E 003°47'0 0.0
2017-Oct-14 11:29N 51°09' E 003°47'0 0.0
2017-Oct-14 10:59N 51°09' E 003°47'0 0.0
2017-Oct-14 10:29N 51°09' E 003°47'0 0.0
2017-Oct-14 09:59N 51°09' E 003°47'0 0.0
2017-Oct-14 09:29N 51°09' E 003°47'0 0.0
2017-Oct-14 08:59N 51°09' E 003°47'0 0.0
2017-Oct-14 08:29N 51°09' E 003°47'0 0.0
2017-Oct-14 07:59N 51°09' E 003°47'0 0.0
2017-Oct-14 07:29N 51°09' E 003°47'0 0.0
2017-Oct-14 06:59N 51°09' E 003°47'0 0.0
2017-Oct-14 06:29N 51°09' E 003°47'0 0.0
2017-Oct-14 05:59N 51°09' E 003°47'0 0.0
2017-Oct-14 05:29N 51°09' E 003°47'0 0.0
2017-Oct-14 04:59N 51°09' E 003°47'0 0.0
2017-Oct-14 04:29N 51°09' E 003°47'0 0.0
2017-Oct-14 03:59N 51°09' E 003°47'0 0.0
2017-Oct-14 03:29N 51°09' E 003°47'0 0.0
2017-Oct-14 02:59N 51°09' E 003°47'0 0.0
2017-Oct-14 02:29N 51°09' E 003°47'0 0.0
2017-Oct-14 01:59N 51°09' E 003°47'0 0.0
2017-Oct-14 01:29N 51°09' E 003°47'0 0.0
2017-Oct-14 00:59N 51°09' E 003°47'0 0.0
2017-Oct-14 00:29N 51°09' E 003°47'0 0.0
2017-Oct-13 23:59N 51°09' E 003°47'0 0.0
2017-Oct-13 23:29N 51°09' E 003°47'0 0.0
2017-Oct-13 22:59N 51°09' E 003°47'0 0.0
2017-Oct-13 22:29N 51°09' E 003°47'0 0.0
2017-Oct-13 21:59N 51°09' E 003°47'0 0.0
2017-Oct-13 21:29N 51°09' E 003°47'0 0.0
2017-Oct-13 20:59N 51°09' E 003°47'0 0.0
2017-Oct-13 20:29N 51°09' E 003°47'0 0.0
2017-Oct-13 19:59N 51°09' E 003°47'0 0.0
2017-Oct-13 19:29N 51°09' E 003°47'0 0.0
2017-Oct-13 18:59N 51°09' E 003°47'0 0.0
2017-Oct-13 18:29N 51°09' E 003°47'0 0.0
2017-Oct-13 17:59N 51°09' E 003°47'0 0.0
2017-Oct-13 17:29N 51°09' E 003°47'0 0.0
2017-Oct-13 16:59N 51°09' E 003°47'0 0.0
2017-Oct-13 16:29N 51°09' E 003°47'0 0.0
2017-Oct-13 15:59N 51°09' E 003°47'0 0.0
2017-Oct-13 15:29N 51°09' E 003°47'0 0.1
2017-Oct-13 15:01N 51°09' E 003°47'3 6.2
2017-Oct-13 14:31N 51°13' E 003°48'4 8.8
2017-Oct-13 14:00N 51°17' E 003°50'3 6.0
2017-Oct-13 13:30N 51°20' E 003°49'0 0.1
2017-Oct-13 13:01N 51°20' E 003°49'0 0.0
2017-Oct-13 12:31N 51°20' E 003°49'1 1.4
2017-Oct-13 12:01N 51°20' E 003°49'3 6.0
2017-Oct-13 11:30N 51°22' E 003°45'5 9.4
2017-Oct-13 11:01N 51°25' E 003°39'4 7.9
2017-Oct-13 10:30N 51°25' E 003°33'4 7.9
2017-Oct-13 10:01N 51°25' E 003°26'4 8.8
2017-Oct-13 09:31N 51°24' E 003°19'4 9.0
2017-Oct-13 09:01N 51°24' E 003°12'511.0
2017-Oct-13 08:31N 51°24' E 003°03'612.6
2017-Oct-13 08:00N 51°22' E 002°54'711.9
2017-Oct-13 07:23N 51°22' E 002°42'410.1
2017-Oct-13 07:00N 51°22' E 002°36'0 0.4
2017-Oct-13 06:29N 51°22' E 002°36'2 3.7
2017-Oct-13 05:59N 51°22' E 002°39'2 3.2
2017-Oct-13 05:25N 51°22' E 002°36'2 3.9
2017-Oct-13 04:55N 51°22' E 002°33'2 4.2
2017-Oct-13 04:29N 51°22' E 002°30'2 4.6
2017-Oct-13 03:59N 51°21' E 002°27'2 5.2
2017-Oct-13 03:30N 51°20' E 002°23'4 8.4
2017-Oct-13 02:59N 51°17' E 002°18'510.4
2017-Oct-13 02:30N 51°15' E 002°11'610.8
2017-Oct-13 01:59N 51°11' E 002°03'610.5
2017-Oct-13 01:25N 51°09' E 001°55'410.0
2017-Oct-13 01:01N 51°07' E 001°49'4 8.0
2017-Oct-13 00:30N 51°03' E 001°47'611.7
2017-Oct-13 00:01N 51°02' E 001°56'713.7
2017-Oct-12 23:30N 51°03' E 002°07'713.4
2017-Oct-12 22:59N 51°04' E 002°18'1 3.1
2017-Oct-12 22:31N 51°03' E 002°20'0 1.0
2017-Oct-12 22:01N 51°03' E 002°20'2 4.6
2017-Oct-12 21:29N 51°02' E 002°16'0 0.0
2017-Oct-12 20:53N 51°02' E 002°16'0 0.0
2017-Oct-12 20:23N 51°02' E 002°16'0 0.0
2017-Oct-12 19:53N 51°02' E 002°16'0 0.0
2017-Oct-12 19:05N 51°02' E 002°16'0 0.0
2017-Oct-12 18:59N 51°02' E 002°16'0 0.0
2017-Oct-12 17:32N 51°02' E 002°16'0 0.0
2017-Oct-12 17:29N 51°02' E 002°16'0 0.0
2017-Oct-12 16:59N 51°02' E 002°16'0 0.0
2017-Oct-12 15:41N 51°02' E 002°16'0 0.0
2017-Oct-12 15:26N 51°02' E 002°16'0 0.0
2017-Oct-12 14:59N 51°02' E 002°16'0 0.0
2017-Oct-12 14:14N 51°02' E 002°16'0 0.0
2017-Oct-12 13:59N 51°02' E 002°16'0 0.0
2017-Oct-12 12:23N 51°02' E 002°16'0 0.0
2017-Oct-12 10:29N 51°02' E 002°16'0 0.0
2017-Oct-12 09:59N 51°02' E 002°16'0 0.0
2017-Oct-12 09:29N 51°02' E 002°16'0 0.0
2017-Oct-12 08:53N 51°02' E 002°16'0 0.0
2017-Oct-12 08:29N 51°02' E 002°16'0 0.0
2017-Oct-12 07:44N 51°02' E 002°16'0 0.0
2017-Oct-12 07:23N 51°02' E 002°16'0 0.0
2017-Oct-12 06:59N 51°02' E 002°16'0 0.0
2017-Oct-12 06:26N 51°02' E 002°16'0 0.0
2017-Oct-12 05:59N 51°02' E 002°16'0 0.0
2017-Oct-12 05:29N 51°02' E 002°16'0 0.0
2017-Oct-12 04:56N 51°02' E 002°16'0 0.0
2017-Oct-12 04:23N 51°02' E 002°16'0 0.0
2017-Oct-12 03:59N 51°02' E 002°16'0 0.0
2017-Oct-12 03:29N 51°02' E 002°16'0 0.0
2017-Oct-12 02:59N 51°02' E 002°16'0 0.0
2017-Oct-12 02:23N 51°02' E 002°16'0 0.0
2017-Oct-12 01:59N 51°02' E 002°16'0 0.0
2017-Oct-12 00:59N 51°02' E 002°16'0 0.0
2017-Oct-12 00:29N 51°02' E 002°16'0 0.0
2017-Oct-11 23:35N 51°02' E 002°16'0 0.0
2017-Oct-11 23:29N 51°02' E 002°16'0 0.0
2017-Oct-11 22:59N 51°02' E 002°16'0 0.0
2017-Oct-11 22:30N 51°02' E 002°16'2 4.4
2017-Oct-11 22:00N 51°03' E 002°19'1 1.4
2017-Oct-11 21:25N 51°03' E 002°21'2 3.7
2017-Oct-11 21:00N 51°04' E 002°18'611.2
2017-Oct-11 20:29N 51°03' E 002°09'612.0
2017-Oct-11 19:57N 51°02' E 001°59'611.9
2017-Oct-11 19:25N 51°01' E 001°49'2 5.8
2017-Oct-11 19:00N 51°02' E 001°45'3 5.2
2017-Oct-11 18:31N 51°04' E 001°45'4 8.9
2017-Oct-11 18:00N 51°07' E 001°40'3 6.4
2017-Oct-11 17:31N 51°10' E 001°42'3 6.3
2017-Oct-11 17:01N 51°13' E 001°45'152 8.1
2017-Oct-10 22:21N 53°33' E 000°08'413.3
2017-Oct-10 22:01N 53°35' E 000°01'612.8
2017-Oct-10 21:30N 53°38' W 000°08'611.1
2017-Oct-10 21:00N 53°42' W 000°14'3 5.1
2017-Oct-10 20:30N 53°44' W 000°16'0 0.0
2017-Oct-10 20:00N 53°45' W 000°16'0 0.6
2017-Oct-10 19:30N 53°44' W 000°16'0 0.1
2017-Oct-10 19:01N 53°44' W 000°16'0 0.0
2017-Oct-10 18:28N 53°44' W 000°16'0 0.0
2017-Oct-10 17:58N 53°44' W 000°16'0 0.0
2017-Oct-10 17:28N 53°44' W 000°16'0 0.0
2017-Oct-10 16:58N 53°44' W 000°16'0 0.0
2017-Oct-10 16:28N 53°44' W 000°16'0 0.0
2017-Oct-10 15:58N 53°44' W 000°16'0 0.0
2017-Oct-10 15:28N 53°44' W 000°16'0 0.0
2017-Oct-10 14:58N 53°44' W 000°16'0 0.0
2017-Oct-10 13:58N 53°44' W 000°16'0 0.0
2017-Oct-10 13:28N 53°44' W 000°16'0 0.0
2017-Oct-10 12:58N 53°44' W 000°16'0 0.0
2017-Oct-10 12:28N 53°44' W 000°16'0 0.0
2017-Oct-10 11:58N 53°44' W 000°16'0 0.0
2017-Oct-10 11:28N 53°44' W 000°16'0 0.0
2017-Oct-10 10:58N 53°44' W 000°16'0 0.0
2017-Oct-10 10:28N 53°44' W 000°16'0 0.0
2017-Oct-10 09:58N 53°44' W 000°16'0 0.0
2017-Oct-10 09:28N 53°44' W 000°16'0 0.0
2017-Oct-10 08:58N 53°44' W 000°16'0 0.0
2017-Oct-10 08:28N 53°44' W 000°16'0 0.0
2017-Oct-10 07:58N 53°44' W 000°16'0 0.0
2017-Oct-10 07:28N 53°44' W 000°16'0 0.0
2017-Oct-10 06:58N 53°44' W 000°16'0 0.0
2017-Oct-10 06:28N 53°44' W 000°16'0 0.0
2017-Oct-10 05:58N 53°44' W 000°16'0 0.0
2017-Oct-10 05:28N 53°44' W 000°16'0 0.0
2017-Oct-10 04:58N 53°44' W 000°16'0 0.0
2017-Oct-10 04:28N 53°44' W 000°16'0 0.0
2017-Oct-10 03:58N 53°44' W 000°16'0 0.0
2017-Oct-10 03:28N 53°44' W 000°16'0 0.0
2017-Oct-10 02:58N 53°44' W 000°16'0 0.0
2017-Oct-10 02:28N 53°44' W 000°16'0 0.0
2017-Oct-10 01:58N 53°44' W 000°16'0 0.0
2017-Oct-10 01:28N 53°44' W 000°16'0 0.0
2017-Oct-10 00:58N 53°44' W 000°16'0 0.0
2017-Oct-10 00:28N 53°44' W 000°16'0 0.0
2017-Oct-09 23:58N 53°44' W 000°16'0 0.0
2017-Oct-09 23:28N 53°44' W 000°16'0 0.0
2017-Oct-09 22:58N 53°44' W 000°16'0 0.0
2017-Oct-09 22:25N 53°44' W 000°16'0 0.0
2017-Oct-09 21:58N 53°44' W 000°16'0 0.0
2017-Oct-09 21:28N 53°44' W 000°16'0 0.0
2017-Oct-09 20:58N 53°44' W 000°16'0 0.0
2017-Oct-09 20:28N 53°44' W 000°16'0 0.0
2017-Oct-09 19:58N 53°44' W 000°16'0 0.0
2017-Oct-09 19:25N 53°44' W 000°16'0 0.0
2017-Oct-09 18:58N 53°44' W 000°16'0 0.0
2017-Oct-09 18:28N 53°44' W 000°16'0 0.0
2017-Oct-09 17:58N 53°44' W 000°16'0 0.0
2017-Oct-09 17:28N 53°44' W 000°16'0 0.0
2017-Oct-09 16:58N 53°44' W 000°16'0 0.0
2017-Oct-09 16:25N 53°44' W 000°16'0 0.0
2017-Oct-09 15:58N 53°44' W 000°16'0 0.0
2017-Oct-09 15:28N 53°44' W 000°16'0 0.0
2017-Oct-09 14:58N 53°44' W 000°16'0 0.0
2017-Oct-09 14:28N 53°44' W 000°16'0 0.0
2017-Oct-09 13:58N 53°44' W 000°16'0 0.0
2017-Oct-09 13:28N 53°44' W 000°16'0 0.0
2017-Oct-09 12:58N 53°44' W 000°16'0 0.0
2017-Oct-09 12:28N 53°44' W 000°16'0 0.0
2017-Oct-09 11:58N 53°44' W 000°16'0 0.0
2017-Oct-09 11:28N 53°44' W 000°16'0 0.0
2017-Oct-09 10:58N 53°44' W 000°16'0 0.0
2017-Oct-09 10:28N 53°44' W 000°16'0 0.0
2017-Oct-09 09:58N 53°44' W 000°16'0 0.0
2017-Oct-09 09:25N 53°44' W 000°16'0 0.0
2017-Oct-09 08:58N 53°44' W 000°16'0 0.0
2017-Oct-09 08:30N 53°44' W 000°16'0 0.8
2017-Oct-09 08:00N 53°44' W 000°16'0 0.7
2017-Oct-09 07:30N 53°44' W 000°17'3 5.9
2017-Oct-09 07:01N 53°42' W 000°14'5 9.4
2017-Oct-09 06:30N 53°38' W 000°09'48 9.6
2017-Oct-09 01:29N 53°18' E 001°04'1110.1
2017-Oct-09 00:24N 53°11' E 001°18'10 9.4
2017-Oct-08 23:18N 53°10' E 001°35'60 7.8
2017-Oct-08 15:41N 52°11' E 001°57'213.2
2017-Oct-08 15:31N 52°09' E 001°56'713.3
2017-Oct-08 15:01N 52°03' E 001°52'713.1
2017-Oct-08 14:31N 51°57' E 001°49'611.8
2017-Oct-08 14:01N 51°51' E 001°49'611.3
2017-Oct-08 13:31N 51°45' E 001°49'510.8
2017-Oct-08 13:01N 51°40' E 001°49'510.4
2017-Oct-08 12:31N 51°35' E 001°51'510.4
2017-Oct-08 12:01N 51°30' E 001°56'5 9.9
2017-Oct-08 11:31N 51°26' E 001°59'5 9.8
2017-Oct-08 10:59N 51°22' E 002°05'4 8.9
2017-Oct-08 10:31N 51°18' E 002°06'4 7.9
2017-Oct-08 09:59N 51°14' E 002°03'4 7.8
2017-Oct-08 09:30N 51°12' E 001°58'4 7.5
2017-Oct-08 09:00N 51°10' E 001°53'4 7.5
2017-Oct-08 08:30N 51°08' E 001°49'4 7.4
2017-Oct-08 08:01N 51°05' E 001°44'4 7.4
2017-Oct-08 07:30N 51°02' E 001°40'  

Dump ship's entire track history